sensor_id;sensor_type;location;lat;lon;timestamp;P1;durP1;ratioP1;P2;durP2;ratioP2
22894;SDS011;11614;52.494;6.976;2022-12-16T00:02:19;26.73;;;11.23;;
22894;SDS011;11614;52.494;6.976;2022-12-16T00:04:45;42.87;;;17.27;;
22894;SDS011;11614;52.494;6.976;2022-12-16T00:07:11;44.80;;;18.30;;
22894;SDS011;11614;52.494;6.976;2022-12-16T00:09:37;47.50;;;17.80;;
22894;SDS011;11614;52.494;6.976;2022-12-16T00:12:03;43.60;;;18.13;;
22894;SDS011;11614;52.494;6.976;2022-12-16T00:14:29;43.37;;;17.87;;
22894;SDS011;11614;52.494;6.976;2022-12-16T00:16:55;28.23;;;10.60;;
22894;SDS011;11614;52.494;6.976;2022-12-16T00:19:21;57.00;;;23.20;;
22894;SDS011;11614;52.494;6.976;2022-12-16T00:21:47;49.53;;;19.80;;
22894;SDS011;11614;52.494;6.976;2022-12-16T00:24:13;25.73;;;8.23;;
22894;SDS011;11614;52.494;6.976;2022-12-16T00:26:39;52.90;;;18.67;;
22894;SDS011;11614;52.494;6.976;2022-12-16T00:29:05;58.30;;;20.97;;
22894;SDS011;11614;52.494;6.976;2022-12-16T00:31:31;45.83;;;16.50;;
22894;SDS011;11614;52.494;6.976;2022-12-16T00:33:57;50.30;;;20.00;;
22894;SDS011;11614;52.494;6.976;2022-12-16T00:36:23;61.07;;;23.20;;
22894;SDS011;11614;52.494;6.976;2022-12-16T00:38:53;57.63;;;23.57;;
22894;SDS011;11614;52.494;6.976;2022-12-16T00:41:19;64.00;;;23.57;;
22894;SDS011;11614;52.494;6.976;2022-12-16T00:43:45;65.13;;;21.97;;
22894;SDS011;11614;52.494;6.976;2022-12-16T00:46:11;52.00;;;19.60;;
22894;SDS011;11614;52.494;6.976;2022-12-16T00:48:37;41.43;;;16.23;;
22894;SDS011;11614;52.494;6.976;2022-12-16T00:51:03;59.97;;;23.70;;
22894;SDS011;11614;52.494;6.976;2022-12-16T00:53:29;39.03;;;15.17;;
22894;SDS011;11614;52.494;6.976;2022-12-16T00:56:06;57.33;;;20.97;;
22894;SDS011;11614;52.494;6.976;2022-12-16T00:58:32;50.37;;;18.57;;
22894;SDS011;11614;52.494;6.976;2022-12-16T01:00:59;51.03;;;19.33;;
22894;SDS011;11614;52.494;6.976;2022-12-16T01:03:25;51.87;;;21.43;;
22894;SDS011;11614;52.494;6.976;2022-12-16T01:05:51;47.37;;;18.30;;
22894;SDS011;11614;52.494;6.976;2022-12-16T01:08:17;47.57;;;19.90;;
22894;SDS011;11614;52.494;6.976;2022-12-16T01:10:53;49.97;;;18.83;;
22894;SDS011;11614;52.494;6.976;2022-12-16T01:13:20;52.40;;;21.87;;
22894;SDS011;11614;52.494;6.976;2022-12-16T01:15:46;45.20;;;18.33;;
22894;SDS011;11614;52.494;6.976;2022-12-16T01:18:13;45.03;;;16.87;;
22894;SDS011;11614;52.494;6.976;2022-12-16T01:20:39;38.83;;;16.40;;
22894;SDS011;11614;52.494;6.976;2022-12-16T01:23:05;43.70;;;17.67;;
22894;SDS011;11614;52.494;6.976;2022-12-16T01:25:31;43.40;;;16.90;;
22894;SDS011;11614;52.494;6.976;2022-12-16T01:27:57;50.70;;;18.93;;
22894;SDS011;11614;52.494;6.976;2022-12-16T01:30:23;48.43;;;18.93;;
22894;SDS011;11614;52.494;6.976;2022-12-16T01:32:49;52.40;;;18.97;;
22894;SDS011;11614;52.494;6.976;2022-12-16T01:35:16;46.83;;;19.50;;
22894;SDS011;11614;52.494;6.976;2022-12-16T01:37:42;45.63;;;19.20;;
22894;SDS011;11614;52.494;6.976;2022-12-16T01:40:13;49.83;;;19.20;;
22894;SDS011;11614;52.494;6.976;2022-12-16T01:42:42;51.10;;;18.73;;
22894;SDS011;11614;52.494;6.976;2022-12-16T01:47:51;48.60;;;19.40;;
22894;SDS011;11614;52.494;6.976;2022-12-16T01:50:19;42.37;;;17.23;;
22894;SDS011;11614;52.494;6.976;2022-12-16T01:52:47;51.93;;;19.27;;
22894;SDS011;11614;52.494;6.976;2022-12-16T01:55:16;47.30;;;19.37;;
22894;SDS011;11614;52.494;6.976;2022-12-16T01:57:46;47.07;;;17.83;;
22894;SDS011;11614;52.494;6.976;2022-12-16T02:00:12;45.23;;;18.90;;
22894;SDS011;11614;52.494;6.976;2022-12-16T02:02:40;44.17;;;17.33;;
22894;SDS011;11614;52.494;6.976;2022-12-16T02:05:07;47.83;;;18.73;;
22894;SDS011;11614;52.494;6.976;2022-12-16T02:10:24;48.53;;;19.07;;
22894;SDS011;11614;52.494;6.976;2022-12-16T02:12:58;44.53;;;17.50;;
22894;SDS011;11614;52.494;6.976;2022-12-16T02:15:29;42.97;;;18.03;;
22894;SDS011;11614;52.494;6.976;2022-12-16T02:18:12;47.70;;;17.70;;
22894;SDS011;11614;52.494;6.976;2022-12-16T02:31:03;44.67;;;17.87;;
22894;SDS011;11614;52.494;6.976;2022-12-16T02:41:43;41.50;;;16.40;;
22894;SDS011;11614;52.494;6.976;2022-12-16T02:44:11;42.73;;;17.53;;
22894;SDS011;11614;52.494;6.976;2022-12-16T02:46:39;43.03;;;16.60;;
22894;SDS011;11614;52.494;6.976;2022-12-16T02:49:06;51.47;;;18.67;;
22894;SDS011;11614;52.494;6.976;2022-12-16T02:51:33;39.97;;;15.27;;
22894;SDS011;11614;52.494;6.976;2022-12-16T02:54:00;27.40;;;11.37;;
22894;SDS011;11614;52.494;6.976;2022-12-16T03:04:01;42.97;;;17.43;;
22894;SDS011;11614;52.494;6.976;2022-12-16T03:06:28;46.27;;;17.47;;
22894;SDS011;11614;52.494;6.976;2022-12-16T03:08:56;41.80;;;16.80;;
22894;SDS011;11614;52.494;6.976;2022-12-16T03:11:24;42.73;;;17.70;;
22894;SDS011;11614;52.494;6.976;2022-12-16T03:13:52;43.40;;;17.07;;
22894;SDS011;11614;52.494;6.976;2022-12-16T03:16:19;47.20;;;18.47;;
22894;SDS011;11614;52.494;6.976;2022-12-16T03:18:46;47.67;;;17.27;;
22894;SDS011;11614;52.494;6.976;2022-12-16T03:21:14;47.43;;;17.47;;
22894;SDS011;11614;52.494;6.976;2022-12-16T03:23:49;46.67;;;18.77;;
22894;SDS011;11614;52.494;6.976;2022-12-16T03:26:19;50.20;;;20.60;;
22894;SDS011;11614;52.494;6.976;2022-12-16T03:28:47;40.97;;;15.13;;
22894;SDS011;11614;52.494;6.976;2022-12-16T03:31:27;43.90;;;17.80;;
22894;SDS011;11614;52.494;6.976;2022-12-16T03:34:04;33.77;;;14.10;;
22894;SDS011;11614;52.494;6.976;2022-12-16T03:36:32;43.33;;;16.60;;
22894;SDS011;11614;52.494;6.976;2022-12-16T03:39:01;42.27;;;17.63;;
22894;SDS011;11614;52.494;6.976;2022-12-16T03:41:27;34.40;;;14.20;;
22894;SDS011;11614;52.494;6.976;2022-12-16T03:43:55;43.13;;;15.67;;
22894;SDS011;11614;52.494;6.976;2022-12-16T03:46:21;34.47;;;13.87;;
22894;SDS011;11614;52.494;6.976;2022-12-16T03:48:50;46.90;;;18.70;;
22894;SDS011;11614;52.494;6.976;2022-12-16T03:51:17;50.20;;;19.93;;
22894;SDS011;11614;52.494;6.976;2022-12-16T03:53:43;44.33;;;17.67;;
22894;SDS011;11614;52.494;6.976;2022-12-16T03:56:09;43.00;;;17.93;;
22894;SDS011;11614;52.494;6.976;2022-12-16T03:58:36;38.67;;;16.43;;
22894;SDS011;11614;52.494;6.976;2022-12-16T04:01:04;44.17;;;17.30;;
22894;SDS011;11614;52.494;6.976;2022-12-16T04:03:30;48.10;;;19.33;;
22894;SDS011;11614;52.494;6.976;2022-12-16T04:05:56;47.37;;;20.00;;
22894;SDS011;11614;52.494;6.976;2022-12-16T04:08:22;47.00;;;18.17;;
22894;SDS011;11614;52.494;6.976;2022-12-16T04:10:51;51.20;;;19.77;;
22894;SDS011;11614;52.494;6.976;2022-12-16T04:13:36;46.77;;;18.00;;
22894;SDS011;11614;52.494;6.976;2022-12-16T04:16:21;47.93;;;19.20;;
22894;SDS011;11614;52.494;6.976;2022-12-16T04:19:07;46.43;;;19.03;;
22894;SDS011;11614;52.494;6.976;2022-12-16T04:21:53;49.57;;;18.90;;
22894;SDS011;11614;52.494;6.976;2022-12-16T04:24:37;52.57;;;19.40;;
22894;SDS011;11614;52.494;6.976;2022-12-16T04:27:04;48.57;;;20.37;;
22894;SDS011;11614;52.494;6.976;2022-12-16T04:29:48;49.93;;;20.53;;
22894;SDS011;11614;52.494;6.976;2022-12-16T04:32:33;51.87;;;20.70;;
22894;SDS011;11614;52.494;6.976;2022-12-16T04:35:18;52.23;;;19.77;;
22894;SDS011;11614;52.494;6.976;2022-12-16T04:38:02;48.43;;;19.03;;
22894;SDS011;11614;52.494;6.976;2022-12-16T04:40:47;52.10;;;20.40;;
22894;SDS011;11614;52.494;6.976;2022-12-16T04:43:32;47.03;;;19.70;;
22894;SDS011;11614;52.494;6.976;2022-12-16T04:46:17;46.40;;;19.10;;
22894;SDS011;11614;52.494;6.976;2022-12-16T04:49:01;54.40;;;20.30;;
22894;SDS011;11614;52.494;6.976;2022-12-16T04:51:46;47.23;;;18.10;;
22894;SDS011;11614;52.494;6.976;2022-12-16T04:54:31;56.70;;;21.50;;
22894;SDS011;11614;52.494;6.976;2022-12-16T04:57:15;56.07;;;19.53;;
22894;SDS011;11614;52.494;6.976;2022-12-16T05:00:00;59.87;;;20.47;;
22894;SDS011;11614;52.494;6.976;2022-12-16T05:02:49;53.47;;;20.93;;
22894;SDS011;11614;52.494;6.976;2022-12-16T05:05:34;53.30;;;21.00;;
22894;SDS011;11614;52.494;6.976;2022-12-16T05:08:18;59.73;;;22.73;;
22894;SDS011;11614;52.494;6.976;2022-12-16T05:11:03;54.93;;;23.73;;
22894;SDS011;11614;52.494;6.976;2022-12-16T05:13:48;59.83;;;21.83;;
22894;SDS011;11614;52.494;6.976;2022-12-16T05:16:33;54.63;;;21.17;;
22894;SDS011;11614;52.494;6.976;2022-12-16T05:19:18;49.33;;;19.03;;
22894;SDS011;11614;52.494;6.976;2022-12-16T05:22:02;60.23;;;20.57;;
22894;SDS011;11614;52.494;6.976;2022-12-16T05:24:47;66.33;;;25.53;;
22894;SDS011;11614;52.494;6.976;2022-12-16T05:27:32;57.60;;;21.80;;
22894;SDS011;11614;52.494;6.976;2022-12-16T05:30:17;58.70;;;20.43;;
22894;SDS011;11614;52.494;6.976;2022-12-16T05:33:01;57.53;;;20.93;;
22894;SDS011;11614;52.494;6.976;2022-12-16T05:35:46;57.77;;;21.27;;
22894;SDS011;11614;52.494;6.976;2022-12-16T05:38:31;55.13;;;21.30;;
22894;SDS011;11614;52.494;6.976;2022-12-16T05:41:15;54.40;;;20.17;;
22894;SDS011;11614;52.494;6.976;2022-12-16T05:44:00;55.70;;;21.20;;
22894;SDS011;11614;52.494;6.976;2022-12-16T05:46:45;49.10;;;19.80;;
22894;SDS011;11614;52.494;6.976;2022-12-16T05:49:29;52.30;;;20.77;;
22894;SDS011;11614;52.494;6.976;2022-12-16T05:52:14;54.13;;;21.83;;
22894;SDS011;11614;52.494;6.976;2022-12-16T05:54:59;59.73;;;22.27;;
22894;SDS011;11614;52.494;6.976;2022-12-16T05:57:44;54.53;;;22.07;;
22894;SDS011;11614;52.494;6.976;2022-12-16T06:00:31;62.30;;;21.70;;
22894;SDS011;11614;52.494;6.976;2022-12-16T06:03:16;56.60;;;21.67;;
22894;SDS011;11614;52.494;6.976;2022-12-16T06:06:01;58.73;;;22.50;;
22894;SDS011;11614;52.494;6.976;2022-12-16T06:08:46;57.83;;;23.83;;
22894;SDS011;11614;52.494;6.976;2022-12-16T06:11:31;61.97;;;22.97;;
22894;SDS011;11614;52.494;6.976;2022-12-16T06:14:16;55.93;;;22.70;;
22894;SDS011;11614;52.494;6.976;2022-12-16T06:17:00;61.60;;;22.43;;
22894;SDS011;11614;52.494;6.976;2022-12-16T06:19:45;54.50;;;20.13;;
22894;SDS011;11614;52.494;6.976;2022-12-16T06:22:29;51.80;;;20.47;;
22894;SDS011;11614;52.494;6.976;2022-12-16T06:25:14;55.00;;;20.63;;
22894;SDS011;11614;52.494;6.976;2022-12-16T06:27:59;59.83;;;20.83;;
22894;SDS011;11614;52.494;6.976;2022-12-16T06:30:43;74.50;;;28.77;;
22894;SDS011;11614;52.494;6.976;2022-12-16T06:33:28;58.90;;;22.47;;
22894;SDS011;11614;52.494;6.976;2022-12-16T06:36:13;57.97;;;22.83;;
22894;SDS011;11614;52.494;6.976;2022-12-16T06:39:18;78.00;;;28.83;;
22894;SDS011;11614;52.494;6.976;2022-12-16T06:42:02;70.63;;;26.33;;
22894;SDS011;11614;52.494;6.976;2022-12-16T06:44:47;76.83;;;29.47;;
22894;SDS011;11614;52.494;6.976;2022-12-16T06:47:31;65.90;;;25.27;;
22894;SDS011;11614;52.494;6.976;2022-12-16T06:50:16;65.87;;;25.60;;
22894;SDS011;11614;52.494;6.976;2022-12-16T06:53:01;52.70;;;20.00;;
22894;SDS011;11614;52.494;6.976;2022-12-16T06:55:46;58.37;;;21.97;;
22894;SDS011;11614;52.494;6.976;2022-12-16T06:58:30;57.43;;;22.53;;
22894;SDS011;11614;52.494;6.976;2022-12-16T07:01:15;67.83;;;24.23;;
22894;SDS011;11614;52.494;6.976;2022-12-16T07:04:00;48.67;;;19.00;;
22894;SDS011;11614;52.494;6.976;2022-12-16T07:06:45;65.20;;;24.27;;
22894;SDS011;11614;52.494;6.976;2022-12-16T07:09:29;68.47;;;23.80;;
22894;SDS011;11614;52.494;6.976;2022-12-16T07:12:14;64.97;;;22.73;;
22894;SDS011;11614;52.494;6.976;2022-12-16T07:14:59;74.00;;;22.20;;
22894;SDS011;11614;52.494;6.976;2022-12-16T07:17:44;61.47;;;22.83;;
22894;SDS011;11614;52.494;6.976;2022-12-16T07:20:29;115.83;;;30.70;;
22894;SDS011;11614;52.494;6.976;2022-12-16T07:23:13;103.33;;;28.23;;
22894;SDS011;11614;52.494;6.976;2022-12-16T07:25:58;86.83;;;23.17;;
22894;SDS011;11614;52.494;6.976;2022-12-16T07:28:43;89.33;;;22.20;;
22894;SDS011;11614;52.494;6.976;2022-12-16T07:31:28;75.90;;;17.73;;
22894;SDS011;11614;52.494;6.976;2022-12-16T07:34:13;91.13;;;23.80;;
22894;SDS011;11614;52.494;6.976;2022-12-16T07:36:57;91.50;;;20.13;;
22894;SDS011;11614;52.494;6.976;2022-12-16T07:39:42;131.53;;;23.30;;
22894;SDS011;11614;52.494;6.976;2022-12-16T07:42:27;97.10;;;22.40;;
22894;SDS011;11614;52.494;6.976;2022-12-16T07:45:11;97.13;;;25.47;;
22894;SDS011;11614;52.494;6.976;2022-12-16T07:47:56;139.57;;;31.60;;
22894;SDS011;11614;52.494;6.976;2022-12-16T07:50:41;86.13;;;23.07;;
22894;SDS011;11614;52.494;6.976;2022-12-16T07:53:26;140.60;;;33.53;;
22894;SDS011;11614;52.494;6.976;2022-12-16T07:56:11;104.97;;;24.07;;
22894;SDS011;11614;52.494;6.976;2022-12-16T07:58:56;102.33;;;26.70;;
22894;SDS011;11614;52.494;6.976;2022-12-16T08:01:40;119.20;;;30.70;;
22894;SDS011;11614;52.494;6.976;2022-12-16T08:04:25;81.20;;;23.73;;
22894;SDS011;11614;52.494;6.976;2022-12-16T08:07:10;58.63;;;17.57;;
22894;SDS011;11614;52.494;6.976;2022-12-16T08:09:55;99.53;;;32.07;;
22894;SDS011;11614;52.494;6.976;2022-12-16T08:12:40;53.67;;;18.67;;
22894;SDS011;11614;52.494;6.976;2022-12-16T08:15:25;86.67;;;29.57;;
22894;SDS011;11614;52.494;6.976;2022-12-16T08:18:09;89.83;;;26.17;;
22894;SDS011;11614;52.494;6.976;2022-12-16T08:20:54;101.00;;;28.30;;
22894;SDS011;11614;52.494;6.976;2022-12-16T08:23:39;58.73;;;19.00;;
22894;SDS011;11614;52.494;6.976;2022-12-16T08:26:23;30.63;;;11.63;;
22894;SDS011;11614;52.494;6.976;2022-12-16T08:29:09;59.33;;;21.20;;
22894;SDS011;11614;52.494;6.976;2022-12-16T08:31:53;59.13;;;20.20;;
22894;SDS011;11614;52.494;6.976;2022-12-16T08:34:38;66.17;;;23.60;;
22894;SDS011;11614;52.494;6.976;2022-12-16T08:37:23;64.70;;;18.93;;
22894;SDS011;11614;52.494;6.976;2022-12-16T08:40:08;57.27;;;22.43;;
22894;SDS011;11614;52.494;6.976;2022-12-16T08:42:54;68.67;;;23.43;;
22894;SDS011;11614;52.494;6.976;2022-12-16T08:45:39;64.90;;;23.23;;
22894;SDS011;11614;52.494;6.976;2022-12-16T08:48:24;65.93;;;25.13;;
22894;SDS011;11614;52.494;6.976;2022-12-16T08:51:09;73.53;;;27.23;;
22894;SDS011;11614;52.494;6.976;2022-12-16T08:53:54;76.60;;;30.23;;
22894;SDS011;11614;52.494;6.976;2022-12-16T08:56:40;64.53;;;25.17;;
22894;SDS011;11614;52.494;6.976;2022-12-16T08:59:25;49.67;;;21.30;;
22894;SDS011;11614;52.494;6.976;2022-12-16T09:02:10;66.70;;;24.80;;
22894;SDS011;11614;52.494;6.976;2022-12-16T09:04:55;65.70;;;25.23;;
22894;SDS011;11614;52.494;6.976;2022-12-16T09:07:39;72.03;;;26.17;;
22894;SDS011;11614;52.494;6.976;2022-12-16T09:10:24;78.93;;;29.07;;
22894;SDS011;11614;52.494;6.976;2022-12-16T09:13:10;72.73;;;27.57;;
22894;SDS011;11614;52.494;6.976;2022-12-16T09:15:55;66.43;;;23.13;;
22894;SDS011;11614;52.494;6.976;2022-12-16T09:18:40;75.00;;;26.10;;
22894;SDS011;11614;52.494;6.976;2022-12-16T09:21:25;56.80;;;20.13;;
22894;SDS011;11614;52.494;6.976;2022-12-16T09:24:09;86.67;;;32.80;;
22894;SDS011;11614;52.494;6.976;2022-12-16T09:26:54;66.10;;;26.37;;
22894;SDS011;11614;52.494;6.976;2022-12-16T09:29:39;72.13;;;27.60;;
22894;SDS011;11614;52.494;6.976;2022-12-16T09:32:24;63.13;;;25.67;;
22894;SDS011;11614;52.494;6.976;2022-12-16T09:35:09;54.00;;;20.17;;
22894;SDS011;11614;52.494;6.976;2022-12-16T09:37:54;51.87;;;18.37;;
22894;SDS011;11614;52.494;6.976;2022-12-16T09:40:39;67.37;;;25.50;;
22894;SDS011;11614;52.494;6.976;2022-12-16T09:46:17;57.20;;;22.47;;
22894;SDS011;11614;52.494;6.976;2022-12-16T09:49:16;66.43;;;25.90;;
22894;SDS011;11614;52.494;6.976;2022-12-16T09:52:01;63.73;;;23.90;;
22894;SDS011;11614;52.494;6.976;2022-12-16T09:54:47;62.93;;;23.67;;
22894;SDS011;11614;52.494;6.976;2022-12-16T09:57:33;74.57;;;30.17;;
22894;SDS011;11614;52.494;6.976;2022-12-16T10:00:23;69.73;;;29.73;;
22894;SDS011;11614;52.494;6.976;2022-12-16T10:03:26;74.00;;;26.67;;
22894;SDS011;11614;52.494;6.976;2022-12-16T10:21:26;74.33;;;27.67;;
22894;SDS011;11614;52.494;6.976;2022-12-16T10:24:18;73.50;;;29.57;;
22894;SDS011;11614;52.494;6.976;2022-12-16T10:27:08;83.50;;;33.70;;
22894;SDS011;11614;52.494;6.976;2022-12-16T10:29:55;76.10;;;25.60;;
22894;SDS011;11614;52.494;6.976;2022-12-16T10:32:46;77.67;;;30.07;;
22894;SDS011;11614;52.494;6.976;2022-12-16T10:35:47;70.93;;;25.70;;
22894;SDS011;11614;52.494;6.976;2022-12-16T10:41:36;62.17;;;24.50;;
22894;SDS011;11614;52.494;6.976;2022-12-16T10:44:24;60.90;;;24.17;;
22894;SDS011;11614;52.494;6.976;2022-12-16T10:47:09;57.73;;;21.10;;
22894;SDS011;11614;52.494;6.976;2022-12-16T10:49:54;55.20;;;20.83;;
22894;SDS011;11614;52.494;6.976;2022-12-16T10:58:36;47.50;;;19.67;;
22894;SDS011;11614;52.494;6.976;2022-12-16T11:01:23;70.93;;;28.53;;
22894;SDS011;11614;52.494;6.976;2022-12-16T11:07:22;51.73;;;22.10;;
22894;SDS011;11614;52.494;6.976;2022-12-16T11:13:33;194.10;;;80.63;;
22894;SDS011;11614;52.494;6.976;2022-12-16T11:16:19;55.63;;;21.00;;
22894;SDS011;11614;52.494;6.976;2022-12-16T11:19:17;57.53;;;24.30;;
22894;SDS011;11614;52.494;6.976;2022-12-16T11:25:15;57.10;;;25.43;;
22894;SDS011;11614;52.494;6.976;2022-12-16T11:30:51;58.20;;;23.60;;
22894;SDS011;11614;52.494;6.976;2022-12-16T11:33:37;53.70;;;23.53;;
22894;SDS011;11614;52.494;6.976;2022-12-16T11:36:23;57.57;;;24.83;;
22894;SDS011;11614;52.494;6.976;2022-12-16T11:39:12;56.57;;;25.80;;
22894;SDS011;11614;52.494;6.976;2022-12-16T11:41:57;72.80;;;27.33;;
22894;SDS011;11614;52.494;6.976;2022-12-16T11:44:44;64.83;;;26.07;;
22894;SDS011;11614;52.494;6.976;2022-12-16T11:47:38;65.23;;;26.30;;
22894;SDS011;11614;52.494;6.976;2022-12-16T11:50:24;59.33;;;25.00;;
22894;SDS011;11614;52.494;6.976;2022-12-16T11:56:07;64.10;;;26.23;;
22894;SDS011;11614;52.494;6.976;2022-12-16T11:58:54;69.40;;;27.70;;
22894;SDS011;11614;52.494;6.976;2022-12-16T12:01:49;67.07;;;27.97;;
22894;SDS011;11614;52.494;6.976;2022-12-16T12:04:34;62.67;;;26.67;;
22894;SDS011;11614;52.494;6.976;2022-12-16T12:13:00;62.00;;;26.20;;
22894;SDS011;11614;52.494;6.976;2022-12-16T12:15:52;75.57;;;31.30;;
22894;SDS011;11614;52.494;6.976;2022-12-16T12:24:32;73.23;;;27.37;;
22894;SDS011;11614;52.494;6.976;2022-12-16T12:30:23;53.63;;;20.03;;
22894;SDS011;11614;52.494;6.976;2022-12-16T12:47:54;76.23;;;29.93;;
22894;SDS011;11614;52.494;6.976;2022-12-16T12:50:45;80.43;;;30.43;;
22894;SDS011;11614;52.494;6.976;2022-12-16T12:54:16;85.03;;;30.43;;
22894;SDS011;11614;52.494;6.976;2022-12-16T12:56:49;81.47;;;31.07;;
22894;SDS011;11614;52.494;6.976;2022-12-16T12:59:50;58.50;;;20.90;;
22894;SDS011;11614;52.494;6.976;2022-12-16T13:02:40;103.40;;;39.70;;
22894;SDS011;11614;52.494;6.976;2022-12-16T13:05:27;93.50;;;33.23;;
22894;SDS011;11614;52.494;6.976;2022-12-16T13:08:30;94.17;;;34.37;;
22894;SDS011;11614;52.494;6.976;2022-12-16T13:11:14;85.43;;;32.23;;
22894;SDS011;11614;52.494;6.976;2022-12-16T13:13:59;93.20;;;32.73;;
22894;SDS011;11614;52.494;6.976;2022-12-16T13:22:35;84.80;;;32.43;;
22894;SDS011;11614;52.494;6.976;2022-12-16T13:28:20;96.10;;;36.33;;
22894;SDS011;11614;52.494;6.976;2022-12-16T13:31:05;102.23;;;35.87;;
22894;SDS011;11614;52.494;6.976;2022-12-16T13:33:52;88.73;;;31.53;;
22894;SDS011;11614;52.494;6.976;2022-12-16T13:36:37;76.80;;;31.30;;
22894;SDS011;11614;52.494;6.976;2022-12-16T13:39:24;91.33;;;33.57;;
22894;SDS011;11614;52.494;6.976;2022-12-16T13:45:36;83.47;;;33.77;;
22894;SDS011;11614;52.494;6.976;2022-12-16T13:51:32;107.03;;;42.40;;
22894;SDS011;11614;52.494;6.976;2022-12-16T13:54:14;101.47;;;39.47;;
22894;SDS011;11614;52.494;6.976;2022-12-16T13:57:03;107.53;;;42.67;;
22894;SDS011;11614;52.494;6.976;2022-12-16T13:59:49;96.57;;;34.43;;
22894;SDS011;11614;52.494;6.976;2022-12-16T14:02:35;89.23;;;32.73;;
22894;SDS011;11614;52.494;6.976;2022-12-16T14:05:24;122.17;;;40.73;;
22894;SDS011;11614;52.494;6.976;2022-12-16T14:08:17;244.93;;;77.80;;
22894;SDS011;11614;52.494;6.976;2022-12-16T14:11:04;96.87;;;30.47;;
22894;SDS011;11614;52.494;6.976;2022-12-16T14:16:56;81.97;;;28.87;;
22894;SDS011;11614;52.494;6.976;2022-12-16T14:25:33;92.93;;;31.03;;
22894;SDS011;11614;52.494;6.976;2022-12-16T14:31:10;83.80;;;27.77;;
22894;SDS011;11614;52.494;6.976;2022-12-16T14:33:56;81.93;;;28.27;;
22894;SDS011;11614;52.494;6.976;2022-12-16T14:36:41;81.23;;;27.80;;
22894;SDS011;11614;52.494;6.976;2022-12-16T14:39:29;90.07;;;30.67;;
22894;SDS011;11614;52.494;6.976;2022-12-16T14:45:16;112.13;;;39.27;;
22894;SDS011;11614;52.494;6.976;2022-12-16T14:51:26;101.80;;;33.30;;
22894;SDS011;11614;52.494;6.976;2022-12-16T14:57:16;111.30;;;39.57;;
22894;SDS011;11614;52.494;6.976;2022-12-16T15:02:53;174.80;;;62.43;;
22894;SDS011;11614;52.494;6.976;2022-12-16T15:05:39;122.17;;;45.77;;
22894;SDS011;11614;52.494;6.976;2022-12-16T15:08:25;159.27;;;60.10;;
22894;SDS011;11614;52.494;6.976;2022-12-16T15:11:10;108.97;;;44.73;;
22894;SDS011;11614;52.494;6.976;2022-12-16T15:13:57;136.37;;;49.37;;
22894;SDS011;11614;52.494;6.976;2022-12-16T15:16:42;100.80;;;36.63;;
22894;SDS011;11614;52.494;6.976;2022-12-16T15:19:27;105.80;;;36.20;;
22894;SDS011;11614;52.494;6.976;2022-12-16T15:22:14;93.43;;;31.17;;
22894;SDS011;11614;52.494;6.976;2022-12-16T15:25:00;92.40;;;34.73;;
22894;SDS011;11614;52.494;6.976;2022-12-16T15:27:52;115.10;;;39.03;;
22894;SDS011;11614;52.494;6.976;2022-12-16T15:30:38;99.23;;;35.27;;
22894;SDS011;11614;52.494;6.976;2022-12-16T15:33:25;90.33;;;33.17;;
22894;SDS011;11614;52.494;6.976;2022-12-16T15:36:20;86.20;;;29.37;;
22894;SDS011;11614;52.494;6.976;2022-12-16T15:39:49;67.83;;;25.23;;
22894;SDS011;11614;52.494;6.976;2022-12-16T15:42:24;70.67;;;25.03;;
22894;SDS011;11614;52.494;6.976;2022-12-16T15:45:16;69.83;;;23.57;;
22894;SDS011;11614;52.494;6.976;2022-12-16T15:48:24;68.97;;;25.50;;
22894;SDS011;11614;52.494;6.976;2022-12-16T15:54:17;74.90;;;27.10;;
22894;SDS011;11614;52.494;6.976;2022-12-16T15:57:02;78.40;;;27.50;;
22894;SDS011;11614;52.494;6.976;2022-12-16T15:59:54;73.63;;;25.10;;
22894;SDS011;11614;52.494;6.976;2022-12-16T16:02:43;73.03;;;26.47;;
22894;SDS011;11614;52.494;6.976;2022-12-16T16:05:29;80.47;;;28.67;;
22894;SDS011;11614;52.494;6.976;2022-12-16T16:08:14;78.77;;;28.87;;
22894;SDS011;11614;52.494;6.976;2022-12-16T16:10:59;75.80;;;27.90;;
22894;SDS011;11614;52.494;6.976;2022-12-16T16:13:44;79.23;;;27.10;;
22894;SDS011;11614;52.494;6.976;2022-12-16T16:16:29;75.63;;;27.20;;
22894;SDS011;11614;52.494;6.976;2022-12-16T16:19:22;76.73;;;26.67;;
22894;SDS011;11614;52.494;6.976;2022-12-16T16:22:09;89.23;;;30.83;;
22894;SDS011;11614;52.494;6.976;2022-12-16T16:24:54;84.67;;;28.63;;
22894;SDS011;11614;52.494;6.976;2022-12-16T16:27:38;179.33;;;77.10;;
22894;SDS011;11614;52.494;6.976;2022-12-16T16:30:23;267.40;;;107.03;;
22894;SDS011;11614;52.494;6.976;2022-12-16T16:33:08;81.27;;;28.37;;
22894;SDS011;11614;52.494;6.976;2022-12-16T16:35:53;123.17;;;51.60;;
22894;SDS011;11614;52.494;6.976;2022-12-16T16:38:37;111.00;;;46.00;;
22894;SDS011;11614;52.494;6.976;2022-12-16T16:41:22;84.47;;;31.43;;
22894;SDS011;11614;52.494;6.976;2022-12-16T16:44:07;90.23;;;29.97;;
22894;SDS011;11614;52.494;6.976;2022-12-16T16:46:52;78.83;;;25.07;;
22894;SDS011;11614;52.494;6.976;2022-12-16T16:49:40;73.97;;;24.87;;
22894;SDS011;11614;52.494;6.976;2022-12-16T16:52:26;72.90;;;26.07;;
22894;SDS011;11614;52.494;6.976;2022-12-16T16:55:31;71.93;;;24.23;;
22894;SDS011;11614;52.494;6.976;2022-12-16T16:58:21;76.00;;;27.10;;
22894;SDS011;11614;52.494;6.976;2022-12-16T17:01:10;91.33;;;30.10;;
22894;SDS011;11614;52.494;6.976;2022-12-16T17:03:55;94.83;;;34.17;;
22894;SDS011;11614;52.494;6.976;2022-12-16T17:06:40;96.87;;;33.80;;
22894;SDS011;11614;52.494;6.976;2022-12-16T17:09:24;100.20;;;40.30;;
22894;SDS011;11614;52.494;6.976;2022-12-16T17:12:19;97.30;;;35.37;;
22894;SDS011;11614;52.494;6.976;2022-12-16T17:15:14;98.17;;;33.93;;
22894;SDS011;11614;52.494;6.976;2022-12-16T17:18:00;83.43;;;29.93;;
22894;SDS011;11614;52.494;6.976;2022-12-16T17:20:45;93.10;;;35.10;;
22894;SDS011;11614;52.494;6.976;2022-12-16T17:23:30;91.30;;;29.83;;
22894;SDS011;11614;52.494;6.976;2022-12-16T17:26:15;66.50;;;26.13;;
22894;SDS011;11614;52.494;6.976;2022-12-16T17:29:00;115.80;;;38.00;;
22894;SDS011;11614;52.494;6.976;2022-12-16T17:31:44;100.67;;;36.97;;
22894;SDS011;11614;52.494;6.976;2022-12-16T17:34:29;95.50;;;32.20;;
22894;SDS011;11614;52.494;6.976;2022-12-16T17:37:14;108.00;;;33.13;;
22894;SDS011;11614;52.494;6.976;2022-12-16T17:39:58;114.60;;;41.80;;
22894;SDS011;11614;52.494;6.976;2022-12-16T17:42:43;100.90;;;36.07;;
22894;SDS011;11614;52.494;6.976;2022-12-16T17:45:32;99.20;;;34.63;;
22894;SDS011;11614;52.494;6.976;2022-12-16T17:48:17;97.67;;;36.77;;
22894;SDS011;11614;52.494;6.976;2022-12-16T17:51:02;109.07;;;34.47;;
22894;SDS011;11614;52.494;6.976;2022-12-16T17:53:50;108.37;;;36.67;;
22894;SDS011;11614;52.494;6.976;2022-12-16T17:56:34;71.70;;;24.93;;
22894;SDS011;11614;52.494;6.976;2022-12-16T17:59:19;114.87;;;35.53;;
22894;SDS011;11614;52.494;6.976;2022-12-16T18:02:04;109.10;;;38.10;;
22894;SDS011;11614;52.494;6.976;2022-12-16T18:04:48;106.60;;;39.53;;
22894;SDS011;11614;52.494;6.976;2022-12-16T18:07:33;112.97;;;38.13;;
22894;SDS011;11614;52.494;6.976;2022-12-16T18:10:18;105.10;;;36.70;;
22894;SDS011;11614;52.494;6.976;2022-12-16T18:13:02;111.33;;;36.83;;